Matagorda, Texas
Current Conditions -  °F | °C
As of 5:53 PM on Wednesday 28 Jan 2015 (Local Time) from KPSX Reporting Station
Clear Clear  
Wind Chill: 62°   Ceiling: Unl
Heat Index: 62°   Visibility: 10mi
Dew Point: 57°   Wind: 7mph
Humidity: 84%   Direction: 130°SE
Pressure: 30.14"   Gusts: NA
Location:  28.69°N, 95.97°W
Report Text: KPSX 282353Z AUTO 13006KT 10SM CLR 17/14 A3014 RMK AO2 SLP206 T01670139 10211 20167 55006
Loading
Personal Weather Stations






























Interactive Weather Map New forecast layout! Learn more

10-Day Weather Forecast

Advertisements
Track Severe Weather on mobile